createdAt,value
2023-04-29T00:00:35.857Z,10.67
2023-04-29T00:04:04.097Z,10.60
2023-04-29T00:07:26.925Z,10.56
2023-04-29T00:10:54.639Z,10.54
2023-04-29T00:14:22.543Z,10.55
2023-04-29T00:17:50.560Z,10.53
2023-04-29T00:21:18.202Z,10.51
2023-04-29T00:24:45.873Z,10.34
2023-04-29T00:28:01.659Z,10.32
2023-04-29T00:31:29.727Z,10.28
2023-04-29T00:34:38.642Z,10.21
2023-04-29T00:38:06.666Z,10.16
2023-04-29T00:41:14.615Z,10.13
2023-04-29T00:44:42.447Z,10.07
2023-04-29T00:47:40.017Z,10.01
2023-04-29T00:51:03.670Z,9.98
2023-04-29T00:54:34.205Z,9.97
2023-04-29T00:58:01.952Z,9.87
2023-04-29T01:01:25.007Z,9.82
2023-04-29T01:04:34.784Z,9.74
2023-04-29T01:07:59.010Z,9.65
2023-04-29T01:11:26.773Z,9.55
2023-04-29T01:14:54.583Z,9.45
2023-04-29T01:18:22.486Z,9.35
2023-04-29T01:21:50.243Z,9.30
2023-04-29T01:25:18.070Z,9.25
2023-04-29T01:28:48.827Z,9.18
2023-04-29T01:31:59.924Z,9.07
2023-04-29T01:35:28.206Z,9.00
2023-04-29T01:38:38.009Z,8.93
2023-04-29T01:41:46.925Z,8.93
2023-04-29T01:44:54.689Z,8.92
2023-04-29T01:48:22.590Z,8.92
2023-04-29T01:51:46.536Z,8.89
2023-04-29T01:54:54.782Z,8.88
2023-04-29T01:58:23.055Z,8.83
2023-04-29T02:01:50.968Z,8.80
2023-04-29T02:05:00.305Z,8.80
2023-04-29T02:08:28.506Z,8.84
2023-04-29T02:11:56.201Z,8.89
2023-04-29T02:15:08.300Z,8.92
2023-04-29T02:18:36.354Z,8.90
2023-04-29T02:22:04.381Z,8.92
2023-04-29T02:25:32.226Z,8.95
2023-04-29T02:28:41.304Z,8.97
2023-04-29T02:32:04.816Z,8.96
2023-04-29T02:35:28.804Z,8.93
2023-04-29T02:38:56.500Z,8.93
2023-04-29T02:42:24.488Z,8.96
2023-04-29T02:45:48.125Z,8.95
2023-04-29T02:49:04.157Z,8.95
2023-04-29T02:52:31.935Z,8.96
2023-04-29T02:55:59.667Z,8.96
2023-04-29T02:59:27.412Z,8.94
2023-04-29T03:02:55.294Z,8.84
2023-04-29T03:06:22.790Z,8.72
2023-04-29T03:09:50.912Z,8.70
2023-04-29T03:13:01.796Z,8.68
2023-04-29T03:16:29.572Z,8.71
2023-04-29T03:19:57.302Z,8.75
2023-04-29T03:23:25.140Z,8.76
2023-04-29T03:26:53.146Z,8.80
2023-04-29T03:30:21.547Z,8.87
2023-04-29T03:33:49.363Z,8.93
2023-04-29T03:37:17.138Z,8.97
2023-04-29T03:40:48.363Z,9.01
2023-04-29T03:44:16.234Z,9.05
2023-04-29T03:47:43.924Z,9.04
2023-04-29T03:51:11.540Z,9.00
2023-04-29T03:54:45.791Z,9.01
2023-04-29T03:58:13.517Z,9.01
2023-04-29T04:01:41.285Z,9.02
2023-04-29T04:04:30.495Z,8.98
2023-04-29T04:07:58.025Z,8.94
2023-04-29T04:10:35.204Z,8.96
2023-04-29T04:14:17.965Z,9.05
2023-04-29T04:17:06.791Z,9.08
2023-04-29T04:20:34.879Z,9.11
2023-04-29T04:24:02.676Z,9.14
2023-04-29T04:27:30.426Z,9.16
2023-04-29T04:31:04.631Z,9.22
2023-04-29T04:34:32.235Z,9.27
2023-04-29T04:37:59.950Z,9.35
2023-04-29T04:41:27.562Z,9.41
2023-04-29T04:44:55.311Z,9.45
2023-04-29T04:48:23.249Z,9.52
2023-04-29T04:51:51.206Z,9.60
2023-04-29T04:55:00.098Z,9.63
2023-04-29T04:58:27.804Z,9.67
2023-04-29T05:01:55.500Z,9.74
2023-04-29T05:05:23.271Z,9.80
2023-04-29T05:08:51.026Z,9.78
2023-04-29T05:12:00.546Z,9.75
2023-04-29T05:15:28.304Z,9.82
2023-04-29T05:18:56.538Z,9.84
2023-04-29T05:22:19.097Z,9.83
2023-04-29T05:25:43.295Z,9.83
2023-04-29T05:29:10.892Z,9.82
2023-04-29T05:32:38.751Z,9.86
2023-04-29T05:36:06.784Z,9.93
2023-04-29T05:39:16.712Z,10.02
2023-04-29T05:42:38.104Z,10.17
2023-04-29T05:46:06.403Z,10.39
2023-04-29T05:49:15.267Z,10.66
2023-04-29T05:52:43.002Z,10.90
2023-04-29T05:56:10.729Z,10.99
2023-04-29T05:59:38.488Z,11.11
2023-04-29T06:03:06.329Z,11.23
2023-04-29T06:06:14.635Z,11.38
2023-04-29T06:09:42.704Z,11.51
2023-04-29T06:12:31.383Z,11.52
2023-04-29T06:15:59.185Z,11.58
2023-04-29T06:19:26.971Z,11.65
2023-04-29T06:22:54.803Z,11.80
2023-04-29T06:26:22.529Z,12.06
2023-04-29T06:29:50.246Z,12.20
2023-04-29T06:33:17.945Z,12.35
2023-04-29T06:36:45.571Z,12.44
2023-04-29T06:40:12.335Z,12.66
2023-04-29T06:43:47.346Z,12.72
2023-04-29T06:47:17.004Z,12.91
2023-04-29T06:50:53.636Z,13.23
2023-04-29T06:54:21.499Z,13.45
2023-04-29T06:57:49.187Z,13.55
2023-04-29T07:01:17.073Z,13.75
2023-04-29T07:04:44.935Z,13.86
2023-04-29T07:08:12.938Z,13.88
2023-04-29T07:11:40.929Z,14.11
2023-04-29T07:15:08.584Z,14.28
2023-04-29T07:18:36.344Z,14.44
2023-04-29T07:22:04.218Z,14.56
2023-04-29T07:25:32.111Z,14.70
2023-04-29T07:28:59.924Z,14.68
2023-04-29T07:32:27.603Z,14.66
2023-04-29T07:35:55.141Z,14.86
2023-04-29T07:39:03.624Z,14.81
2023-04-29T07:42:31.304Z,15.01
2023-04-29T07:45:59.330Z,15.02
2023-04-29T07:49:26.947Z,15.20
2023-04-29T07:52:54.781Z,15.39
2023-04-29T07:56:23.012Z,15.50
2023-04-29T07:59:50.667Z,15.34
2023-04-29T08:03:21.741Z,15.46
2023-04-29T08:06:49.295Z,15.63
2023-04-29T08:10:16.974Z,15.69
2023-04-29T08:13:45.395Z,15.75
2023-04-29T08:17:13.136Z,15.62
2023-04-29T08:20:21.752Z,15.74
2023-04-29T08:23:49.704Z,15.81
2023-04-29T08:27:17.589Z,16.06
2023-04-29T08:30:45.542Z,16.22
2023-04-29T08:34:13.158Z,16.35
2023-04-29T08:37:40.903Z,16.51
2023-04-29T08:41:08.774Z,16.68
2023-04-29T08:44:36.930Z,16.65
2023-04-29T08:48:04.783Z,16.70
2023-04-29T08:51:32.855Z,16.94
2023-04-29T08:54:41.610Z,17.21
2023-04-29T08:58:09.504Z,17.08
2023-04-29T09:01:37.565Z,17.25
2023-04-29T09:05:05.402Z,17.16
2023-04-29T09:08:33.141Z,17.37
2023-04-29T09:12:01.031Z,17.51
2023-04-29T09:15:28.946Z,17.97
2023-04-29T09:18:56.632Z,18.12
2023-04-29T09:22:05.187Z,18.07
2023-04-29T09:25:33.038Z,17.90
2023-04-29T09:28:41.866Z,18.01
2023-04-29T09:32:09.733Z,18.42
2023-04-29T09:35:37.579Z,18.40
2023-04-29T09:39:05.688Z,18.36
2023-04-29T09:42:33.695Z,18.21
2023-04-29T09:46:01.749Z,18.27
2023-04-29T09:49:29.398Z,18.75
2023-04-29T09:52:57.111Z,18.84
2023-04-29T09:56:24.775Z,19.22
2023-04-29T09:59:33.299Z,19.24
2023-04-29T10:03:01.136Z,19.24
2023-04-29T10:06:28.819Z,19.44
2023-04-29T10:09:56.717Z,19.30
2023-04-29T10:13:24.524Z,19.11
2023-04-29T10:16:52.701Z,19.27
2023-04-29T10:20:20.472Z,19.47
2023-04-29T10:23:48.132Z,19.83
2023-04-29T10:27:16.001Z,19.84
2023-04-29T10:30:45.647Z,20.08
2023-04-29T10:34:01.582Z,20.32
2023-04-29T10:37:29.385Z,19.82
2023-04-29T10:40:57.192Z,19.87
2023-04-29T10:44:18.797Z,20.04
2023-04-29T10:47:46.615Z,20.23
2023-04-29T10:50:54.332Z,20.18
2023-04-29T10:53:59.912Z,20.02
2023-04-29T10:57:28.072Z,20.39
2023-04-29T11:00:25.592Z,20.51
2023-04-29T11:03:53.449Z,20.58
2023-04-29T11:07:21.369Z,21.27
2023-04-29T11:10:30.279Z,21.16
2023-04-29T11:13:20.187Z,21.41
2023-04-29T11:16:28.610Z,21.48
2023-04-29T11:19:37.433Z,21.36
2023-04-29T11:22:36.558Z,21.44
2023-04-29T11:25:48.469Z,21.58
2023-04-29T11:28:38.170Z,21.58
2023-04-29T11:32:05.982Z,21.65
2023-04-29T11:35:02.166Z,21.73
2023-04-29T11:38:30.035Z,21.73
2023-04-29T11:41:57.657Z,21.76
2023-04-29T11:45:25.751Z,21.85
2023-04-29T11:48:49.925Z,21.92
2023-04-29T11:51:58.029Z,22.01
2023-04-29T11:55:07.052Z,21.77
2023-04-29T11:58:34.820Z,21.95
2023-04-29T12:02:03.043Z,21.81
2023-04-29T12:05:30.867Z,21.95
2023-04-29T12:08:20.097Z,22.16
2023-04-29T12:11:47.678Z,22.06
2023-04-29T12:14:59.428Z,22.36
2023-04-29T12:18:08.464Z,22.30
2023-04-29T12:21:36.193Z,22.38
2023-04-29T12:25:04.162Z,22.75
2023-04-29T12:28:28.942Z,23.63
2023-04-29T12:31:56.815Z,24.18
2023-04-29T12:34:46.783Z,24.28
2023-04-29T12:38:14.800Z,24.37
2023-04-29T12:41:42.599Z,24.53
2023-04-29T12:44:52.473Z,24.50
2023-04-29T12:47:41.445Z,24.92
2023-04-29T12:51:09.266Z,24.82
2023-04-29T12:54:17.115Z,24.39
2023-04-29T12:57:44.801Z,24.64
2023-04-29T13:00:57.265Z,24.84
2023-04-29T13:03:47.183Z,24.87
2023-04-29T13:06:58.142Z,25.37
2023-04-29T13:13:07.666Z,25.60
2023-04-29T13:16:23.569Z,25.72
2023-04-29T13:19:48.127Z,25.24
2023-04-29T13:23:03.084Z,24.51
2023-04-29T13:26:31.229Z,23.89
2023-04-29T13:29:37.403Z,23.45
2023-04-29T13:32:53.820Z,23.67
2023-04-29T13:36:14.086Z,23.42
2023-04-29T13:39:19.943Z,23.38
2023-04-29T13:42:27.186Z,23.26
2023-04-29T13:45:55.303Z,23.91
2023-04-29T13:49:31.078Z,24.39
2023-04-29T13:53:14.271Z,25.35
2023-04-29T13:56:40.846Z,25.96
2023-04-29T14:02:26.477Z,25.60
2023-04-29T14:05:34.732Z,26.15
2023-04-29T14:08:42.991Z,26.24
2023-04-29T14:11:51.221Z,26.33
2023-04-29T14:14:28.393Z,26.73
2023-04-29T14:17:27.281Z,27.54
2023-04-29T14:20:35.056Z,27.57
2023-04-29T14:23:26.616Z,28.05
2023-04-29T14:26:27.699Z,27.72
2023-04-29T14:29:16.469Z,27.92
2023-04-29T14:32:22.070Z,28.26
2023-04-29T14:35:12.312Z,28.36
2023-04-29T14:38:19.806Z,27.94
2023-04-29T14:41:36.661Z,28.31
2023-04-29T14:44:26.838Z,28.85
2023-04-29T14:47:15.277Z,28.64
2023-04-29T14:50:11.547Z,28.85
2023-04-29T14:53:04.925Z,29.09
2023-04-29T14:55:36.796Z,28.60
2023-04-29T14:58:45.418Z,28.94
2023-04-29T15:01:25.440Z,28.34
2023-04-29T15:04:33.850Z,27.77
2023-04-29T15:08:01.585Z,27.29
2023-04-29T15:11:22.664Z,27.25
2023-04-29T15:14:30.734Z,27.50
2023-04-29T15:17:35.770Z,28.15
2023-04-29T15:20:48.692Z,28.46
2023-04-29T15:24:01.106Z,28.95
2023-04-29T15:27:28.752Z,28.98
2023-04-29T15:30:33.129Z,29.03
2023-04-29T15:34:00.895Z,29.57
2023-04-29T15:37:28.694Z,28.78
2023-04-29T15:40:56.454Z,28.71
2023-04-29T15:44:06.473Z,29.50
2023-04-29T15:47:22.876Z,29.39
2023-04-29T15:50:07.441Z,29.66
2023-04-29T15:53:16.165Z,29.07
2023-04-29T15:56:31.923Z,29.55
2023-04-29T15:59:25.706Z,29.10
2023-04-29T16:02:18.189Z,28.62
2023-04-29T16:05:26.720Z,27.86
2023-04-29T16:08:35.199Z,26.54
2023-04-29T16:11:39.326Z,25.49
2023-04-29T16:14:51.593Z,24.53
2023-04-29T16:18:19.466Z,24.13
2023-04-29T16:21:07.857Z,23.89
2023-04-29T16:23:56.755Z,23.61
2023-04-29T16:27:12.505Z,22.71
2023-04-29T16:30:17.284Z,22.39
2023-04-29T16:33:23.786Z,22.20
2023-04-29T16:36:23.376Z,21.91
2023-04-29T16:39:33.384Z,21.36
2023-04-29T16:42:12.093Z,21.02
2023-04-29T16:45:23.148Z,20.83
2023-04-29T16:48:17.743Z,20.69
2023-04-29T16:51:34.555Z,20.42
2023-04-29T16:55:02.387Z,20.16
2023-04-29T16:58:19.934Z,19.91
2023-04-29T17:01:36.016Z,19.69
2023-04-29T17:05:03.627Z,19.61
2023-04-29T17:08:12.377Z,19.49
2023-04-29T17:11:35.943Z,19.34
2023-04-29T17:14:26.612Z,19.21
2023-04-29T17:17:51.528Z,19.04
2023-04-29T17:21:14.977Z,18.93
2023-04-29T17:24:23.751Z,18.85
2023-04-29T17:27:51.590Z,18.76
2023-04-29T17:31:19.390Z,18.65
2023-04-29T17:34:29.216Z,18.58
2023-04-29T17:37:56.968Z,18.47
2023-04-29T17:41:06.359Z,18.37
2023-04-29T17:44:30.150Z,18.30
2023-04-29T17:47:58.011Z,18.17
2023-04-29T17:51:25.549Z,18.16
2023-04-29T17:54:53.466Z,18.12
2023-04-29T17:58:21.565Z,18.07
2023-04-29T18:01:49.253Z,18.03
2023-04-29T18:05:16.906Z,17.98
2023-04-29T18:08:44.695Z,17.90
2023-04-29T18:12:12.465Z,17.87
2023-04-29T18:15:40.277Z,17.79
2023-04-29T18:19:08.146Z,17.77
2023-04-29T18:22:36.078Z,17.70
2023-04-29T18:26:03.795Z,17.65
2023-04-29T18:29:31.523Z,17.61
2023-04-29T18:32:59.310Z,17.59
2023-04-29T18:36:27.452Z,17.61
2023-04-29T18:39:55.402Z,17.65
2023-04-29T18:43:08.011Z,17.64
2023-04-29T18:46:36.168Z,17.56
2023-04-29T18:50:03.817Z,17.52
2023-04-29T18:53:31.720Z,17.51
2023-04-29T18:56:40.735Z,17.40
2023-04-29T19:00:08.417Z,17.27
2023-04-29T19:03:36.292Z,17.18
2023-04-29T19:07:06.492Z,17.14
2023-04-29T19:10:34.612Z,17.09
2023-04-29T19:14:02.443Z,17.02
2023-04-29T19:17:30.896Z,17.01
2023-04-29T19:20:54.432Z,16.94
2023-04-29T19:24:03.142Z,16.88
2023-04-29T19:27:31.068Z,16.83
2023-04-29T19:30:31.081Z,16.83
2023-04-29T19:33:40.827Z,16.85
2023-04-29T19:37:08.848Z,16.90
2023-04-29T19:40:36.741Z,16.91
2023-04-29T19:43:45.545Z,16.89
2023-04-29T19:47:13.496Z,16.83
2023-04-29T19:50:28.966Z,16.76
2023-04-29T19:53:42.551Z,16.76
2023-04-29T19:56:59.095Z,16.65
2023-04-29T20:00:26.952Z,16.54
2023-04-29T20:03:54.619Z,16.49
2023-04-29T20:07:22.259Z,16.51
2023-04-29T20:10:50.063Z,16.55
2023-04-29T20:14:18.075Z,16.53
2023-04-29T20:17:46.071Z,16.43
2023-04-29T20:20:54.833Z,16.39
2023-04-29T20:24:22.509Z,16.42
2023-04-29T20:27:50.211Z,16.43
2023-04-29T20:31:18.114Z,16.45
2023-04-29T20:34:45.866Z,16.44
2023-04-29T20:37:54.794Z,16.29
2023-04-29T20:41:22.464Z,16.21
2023-04-29T20:44:50.134Z,16.09
2023-04-29T20:48:17.880Z,15.87
2023-04-29T20:51:41.594Z,15.69
2023-04-29T20:55:09.390Z,15.51
2023-04-29T20:58:37.138Z,15.47
2023-04-29T21:02:04.781Z,15.43
2023-04-29T21:05:32.730Z,15.31
2023-04-29T21:09:00.493Z,15.26
2023-04-29T21:12:05.882Z,15.23
2023-04-29T21:15:33.663Z,15.17
2023-04-29T21:19:01.351Z,15.08
2023-04-29T21:22:29.108Z,14.98
2023-04-29T21:25:56.867Z,14.87
2023-04-29T21:29:24.511Z,14.76
2023-04-29T21:32:33.428Z,14.62
2023-04-29T21:36:01.025Z,14.64
2023-04-29T21:39:28.662Z,14.67
2023-04-29T21:42:56.596Z,14.68
2023-04-29T21:46:05.887Z,14.65
2023-04-29T21:49:32.310Z,14.56
2023-04-29T21:52:48.117Z,14.53
2023-04-29T21:55:56.343Z,14.51
2023-04-29T21:59:13.291Z,14.49
2023-04-29T22:02:22.370Z,14.42
2023-04-29T22:05:31.462Z,14.29
2023-04-29T22:08:47.581Z,14.15
2023-04-29T22:12:15.751Z,14.07
2023-04-29T22:15:43.530Z,13.89
2023-04-29T22:19:11.889Z,13.74
2023-04-29T22:22:27.934Z,13.62
2023-04-29T22:25:36.875Z,13.55
2023-04-29T22:29:04.710Z,13.53
2023-04-29T22:32:32.538Z,13.52
2023-04-29T22:36:00.626Z,13.51
2023-04-29T22:39:28.704Z,13.47
2023-04-29T22:42:38.408Z,13.50
2023-04-29T22:46:06.330Z,13.52
2023-04-29T22:49:34.525Z,13.49
2023-04-29T22:53:02.421Z,13.47
2023-04-29T22:56:11.216Z,13.49
2023-04-29T22:59:38.953Z,13.52
2023-04-29T23:03:06.844Z,13.50
2023-04-29T23:06:34.601Z,13.47
2023-04-29T23:09:43.516Z,13.46
2023-04-29T23:13:11.235Z,13.46
2023-04-29T23:16:39.037Z,13.46
2023-04-29T23:20:06.928Z,13.51
2023-04-29T23:23:34.773Z,13.53
2023-04-29T23:27:02.600Z,13.46
2023-04-29T23:30:30.254Z,13.39
2023-04-29T23:33:58.113Z,13.32
2023-04-29T23:37:25.896Z,13.23
2023-04-29T23:40:53.617Z,13.16
2023-04-29T23:44:21.528Z,13.04
2023-04-29T23:47:49.502Z,12.91
2023-04-29T23:51:17.549Z,12.79
2023-04-29T23:54:45.235Z,12.66
2023-04-29T23:58:13.113Z,12.53
